Terminal Aerodrome Forecast
Issued by NWS

Home | Current Version | Previous Version | Text Only | Print | Product List | Glossary On
Versions: 1 2 3 4 5 6 7 8 9 10 11 12 13 14 15 16 17
000
FTUS46 KOTX 200313 AAB
TAFCOE
TAF AMD
KCOE 200313Z 2003/2024 16006KT P6SM FEW030 OVC040
     FM200700 VRB04KT 5SM BR VCFG SCT003 BKN015 BKN100
     FM201700 03010KT P6SM SCT100=

USA.gov is the U.S. government's official web portal to all federal, state and local government web resources and services.